createdAt,value
2018-08-25T00:04:49.828Z,19.00
2018-08-25T00:09:52.857Z,19.00
2018-08-25T00:14:55.859Z,19.10
2018-08-25T00:19:58.896Z,19.20
2018-08-25T00:25:02.048Z,19.20
2018-08-25T00:30:09.364Z,19.20
2018-08-25T00:35:12.384Z,19.10
2018-08-25T00:40:15.757Z,19.10
2018-08-25T00:45:18.856Z,19.10
2018-08-25T00:50:21.891Z,19.10
2018-08-25T00:55:24.992Z,19.10
2018-08-25T01:00:28.023Z,19.10
2018-08-25T01:05:31.620Z,19.00
2018-08-25T01:10:34.639Z,19.00
2018-08-25T01:15:37.772Z,18.90
2018-08-25T01:20:40.753Z,18.80
2018-08-25T01:25:43.802Z,18.70
2018-08-25T01:30:46.808Z,18.60
2018-08-25T01:35:49.923Z,18.60
2018-08-25T01:40:53.023Z,18.50
2018-08-25T01:45:56.060Z,18.50
2018-08-25T01:50:59.112Z,18.40
2018-08-25T01:56:02.244Z,18.30
2018-08-25T02:01:05.339Z,18.30
2018-08-25T02:06:08.433Z,18.10
2018-08-25T02:11:11.458Z,18.00
2018-08-25T02:16:14.536Z,18.00
2018-08-25T02:21:17.559Z,18.00
2018-08-25T02:26:20.581Z,17.90
2018-08-25T02:31:23.670Z,17.80
2018-08-25T02:36:26.759Z,17.80
2018-08-25T02:41:29.801Z,17.70
2018-08-25T02:46:32.840Z,17.70
2018-08-25T02:51:35.859Z,17.60
2018-08-25T02:56:38.855Z,17.70
2018-08-25T03:06:44.839Z,17.80
2018-08-25T03:11:47.878Z,17.60
2018-08-25T03:16:50.906Z,17.60
2018-08-25T03:21:53.952Z,17.60
2018-08-25T03:26:56.975Z,17.60
2018-08-25T03:31:59.989Z,17.70
2018-08-25T03:37:03.016Z,17.70
2018-08-25T03:42:06.114Z,17.70
2018-08-25T03:47:09.142Z,17.80
2018-08-25T03:52:12.429Z,17.80
2018-08-25T03:57:15.442Z,17.70
2018-08-25T04:02:18.468Z,17.60
2018-08-25T04:07:21.491Z,17.60
2018-08-25T04:12:24.527Z,17.60
2018-08-25T04:17:27.551Z,17.70
2018-08-25T04:22:30.637Z,17.70
2018-08-25T04:27:33.665Z,17.70
2018-08-25T04:32:36.669Z,17.70
2018-08-25T04:37:39.692Z,17.70
2018-08-25T04:42:42.732Z,17.70
2018-08-25T04:47:45.768Z,17.70
2018-08-25T04:52:48.796Z,17.50
2018-08-25T04:57:51.812Z,17.50
2018-08-25T05:02:54.857Z,17.50
2018-08-25T05:07:57.905Z,17.50
2018-08-25T05:13:00.943Z,17.60
2018-08-25T05:18:03.986Z,17.60
2018-08-25T05:23:07.012Z,17.60
2018-08-25T05:28:10.063Z,17.50
2018-08-25T05:33:13.100Z,17.60
2018-08-25T05:38:16.122Z,17.60
2018-08-25T05:43:19.151Z,17.50
2018-08-25T05:48:22.190Z,17.50
2018-08-25T05:53:25.294Z,17.70
2018-08-25T05:58:28.407Z,17.80
2018-08-25T06:03:31.452Z,17.90
2018-08-25T06:08:35.334Z,18.10
2018-08-25T06:13:38.485Z,18.20
2018-08-25T06:18:41.448Z,18.30
2018-08-25T06:23:44.485Z,18.50
2018-08-25T06:28:47.508Z,18.60
2018-08-25T06:33:50.547Z,18.60
2018-08-25T06:38:53.582Z,18.50
2018-08-25T06:43:56.620Z,18.30
2018-08-25T06:48:59.653Z,18.10
2018-08-25T06:54:02.696Z,18.30
2018-08-25T06:59:05.734Z,18.50
2018-08-25T07:04:08.779Z,18.10
2018-08-25T07:09:13.125Z,18.10
2018-08-25T07:14:16.159Z,18.20
2018-08-25T07:19:19.171Z,18.30
2018-08-25T07:24:22.251Z,18.60
2018-08-25T07:29:25.292Z,18.70
2018-08-25T07:34:28.331Z,18.90
2018-08-25T07:39:31.339Z,18.50
2018-08-25T07:44:34.388Z,18.50
2018-08-25T07:49:37.450Z,18.90
2018-08-25T07:54:40.729Z,19.20
2018-08-25T07:59:43.748Z,19.20
2018-08-25T08:04:46.835Z,19.30
2018-08-25T08:09:49.827Z,19.40
2018-08-25T08:14:52.866Z,19.60
2018-08-25T08:19:56.104Z,20.00
2018-08-25T08:24:59.247Z,19.90
2018-08-25T08:30:02.328Z,19.70
2018-08-25T08:35:05.476Z,20.30
2018-08-25T08:40:08.503Z,20.90
2018-08-25T08:45:11.575Z,21.00
2018-08-25T08:50:14.663Z,21.00
2018-08-25T08:55:18.787Z,21.60
2018-08-25T09:00:21.818Z,21.80
2018-08-25T09:05:24.859Z,22.40
2018-08-25T09:10:27.919Z,21.80
2018-08-25T09:15:31.019Z,22.20
2018-08-25T09:20:34.859Z,22.10
2018-08-25T09:25:37.946Z,22.50
2018-08-25T09:30:40.964Z,22.40
2018-08-25T09:35:44.015Z,22.00
2018-08-25T09:40:47.039Z,22.10
2018-08-25T09:45:50.412Z,21.70
2018-08-25T09:50:53.421Z,21.70
2018-08-25T09:55:56.483Z,21.70
2018-08-25T10:01:09.740Z,22.70
2018-08-25T10:06:12.855Z,24.20
2018-08-25T10:11:15.893Z,24.20
2018-08-25T10:16:19.135Z,23.90
2018-08-25T10:21:22.133Z,24.40
2018-08-25T10:26:25.153Z,23.80
2018-08-25T10:31:28.248Z,23.30
2018-08-25T10:36:31.507Z,24.10
2018-08-25T10:41:34.546Z,24.10
2018-08-25T10:46:38.700Z,23.60
2018-08-25T10:51:41.837Z,22.80
2018-08-25T10:56:44.856Z,22.40
2018-08-25T11:01:47.886Z,22.00
2018-08-25T11:06:50.903Z,21.70
2018-08-25T11:11:53.939Z,21.40
2018-08-25T11:16:57.170Z,21.20
2018-08-25T11:22:00.287Z,21.30
2018-08-25T11:27:03.336Z,21.40
2018-08-25T11:32:06.382Z,22.10
2018-08-25T11:37:09.488Z,22.60
2018-08-25T11:42:12.463Z,23.10
2018-08-25T11:47:16.887Z,23.30
2018-08-25T13:48:26.599Z,23.20
2018-08-25T13:53:29.599Z,18.10
2018-08-25T13:58:32.619Z,18.10
2018-08-25T14:03:35.688Z,18.40
2018-08-25T14:08:38.720Z,18.80
2018-08-25T14:13:41.781Z,18.70
2018-08-25T14:18:45.225Z,18.50
2018-08-25T14:23:48.243Z,18.40
2018-08-25T14:28:51.301Z,18.40
2018-08-25T14:33:54.301Z,18.80
2018-08-25T14:38:57.369Z,19.20
2018-08-25T14:44:00.385Z,19.80
2018-08-25T14:49:03.415Z,19.90
2018-08-25T14:54:06.429Z,19.80
2018-08-25T14:59:09.513Z,19.70
2018-08-25T15:04:12.541Z,19.80
2018-08-25T15:09:15.572Z,20.00
2018-08-25T15:14:18.592Z,20.50
2018-08-25T15:19:21.631Z,21.00
2018-08-25T15:24:24.746Z,21.20
2018-08-25T15:29:27.767Z,21.00
2018-08-25T15:34:30.793Z,21.20
2018-08-25T15:39:33.811Z,21.20
2018-08-25T15:44:36.875Z,20.90
2018-08-25T15:49:39.941Z,20.90
2018-08-25T15:54:43.085Z,21.30
2018-08-25T15:59:46.137Z,21.20
2018-08-25T16:04:49.175Z,20.60
2018-08-25T16:09:52.335Z,20.80
2018-08-25T16:14:55.387Z,20.60
2018-08-25T16:19:58.692Z,20.10
2018-08-25T16:25:01.590Z,19.70
2018-08-25T16:30:05.303Z,19.40
2018-08-25T16:35:08.347Z,19.30
2018-08-25T16:40:11.652Z,19.20
2018-08-25T16:45:14.674Z,19.00
2018-08-25T16:50:17.692Z,18.90
2018-08-25T16:55:20.768Z,19.40
2018-08-25T17:00:23.712Z,19.80
2018-08-25T17:05:26.794Z,20.90
2018-08-25T17:10:29.812Z,21.00
2018-08-25T17:15:32.874Z,19.60
2018-08-25T17:20:35.914Z,18.80
2018-08-25T17:25:38.928Z,18.80
2018-08-25T17:30:41.952Z,18.50
2018-08-25T17:35:45.055Z,18.30
2018-08-25T17:40:48.108Z,18.20
2018-08-25T17:45:51.147Z,18.10
2018-08-25T17:50:54.330Z,18.10
2018-08-25T17:55:57.437Z,17.90
2018-08-25T21:12:52.358Z,17.80
2018-08-25T21:17:56.123Z,16.00
2018-08-25T21:22:59.246Z,15.90
2018-08-25T21:28:02.208Z,15.80
2018-08-25T21:33:05.276Z,15.70
2018-08-25T21:38:08.314Z,15.80
2018-08-25T21:43:11.352Z,15.80
2018-08-25T21:48:14.393Z,15.80
2018-08-25T21:53:17.403Z,15.80
2018-08-25T21:58:20.449Z,15.80
2018-08-25T22:03:24.123Z,15.70
2018-08-25T22:08:27.179Z,15.60
2018-08-25T22:13:30.203Z,15.60
2018-08-25T22:18:33.230Z,15.40
2018-08-25T22:23:36.252Z,15.40
2018-08-25T22:28:39.271Z,15.30
2018-08-25T22:33:42.329Z,15.10
2018-08-25T22:38:45.340Z,14.90
2018-08-25T22:43:48.533Z,14.90
2018-08-25T22:48:51.584Z,14.90
2018-08-25T22:53:54.602Z,14.90
2018-08-25T22:58:57.631Z,14.60
2018-08-25T23:04:00.735Z,14.60
2018-08-25T23:09:05.495Z,14.60
2018-08-25T23:14:08.503Z,14.70
2018-08-25T23:19:11.515Z,14.50
2018-08-25T23:24:14.539Z,14.40
2018-08-25T23:29:17.565Z,14.40
2018-08-25T23:34:20.588Z,14.40
2018-08-25T23:39:23.610Z,14.40
2018-08-25T23:44:26.643Z,14.40
2018-08-25T23:49:29.665Z,14.30
2018-08-25T23:54:32.684Z,14.40
2018-08-25T23:59:35.686Z,14.40
